sensor_id;sensor_type;location;lat;lon;timestamp;temperature;humidity
55369;DHT22;41247;49.736;8.752;2022-11-04T00:03:20;9.80;99.90
55369;DHT22;41247;49.736;8.752;2022-11-04T00:07:01;9.80;99.90
55369;DHT22;41247;49.736;8.752;2022-11-04T00:10:41;9.90;99.90
55369;DHT22;41247;49.736;8.752;2022-11-04T00:14:22;9.90;99.90
55369;DHT22;41247;49.736;8.752;2022-11-04T00:18:03;9.90;99.90
55369;DHT22;41247;49.736;8.752;2022-11-04T00:21:44;9.90;99.90
55369;DHT22;41247;49.736;8.752;2022-11-04T00:25:25;9.90;99.90
55369;DHT22;41247;49.736;8.752;2022-11-04T00:29:06;9.80;99.90
55369;DHT22;41247;49.736;8.752;2022-11-04T00:32:46;9.80;99.90
55369;DHT22;41247;49.736;8.752;2022-11-04T00:36:27;9.90;99.90
55369;DHT22;41247;49.736;8.752;2022-11-04T00:40:09;9.90;99.90
55369;DHT22;41247;49.736;8.752;2022-11-04T00:43:52;9.80;99.90
55369;DHT22;41247;49.736;8.752;2022-11-04T00:47:37;9.80;99.90
55369;DHT22;41247;49.736;8.752;2022-11-04T00:51:17;9.90;99.90
55369;DHT22;41247;49.736;8.752;2022-11-04T00:54:58;9.90;99.90
55369;DHT22;41247;49.736;8.752;2022-11-04T00:58:38;9.80;99.90
55369;DHT22;41247;49.736;8.752;2022-11-04T01:02:19;9.80;99.90
55369;DHT22;41247;49.736;8.752;2022-11-04T01:06:00;9.80;99.90
55369;DHT22;41247;49.736;8.752;2022-11-04T01:09:40;9.80;99.90
55369;DHT22;41247;49.736;8.752;2022-11-04T01:13:21;9.80;99.90
55369;DHT22;41247;49.736;8.752;2022-11-04T01:17:01;9.80;99.90
55369;DHT22;41247;49.736;8.752;2022-11-04T01:20:42;9.80;99.90
55369;DHT22;41247;49.736;8.752;2022-11-04T01:24:23;9.70;99.90
55369;DHT22;41247;49.736;8.752;2022-11-04T01:28:03;9.70;99.90
55369;DHT22;41247;49.736;8.752;2022-11-04T01:31:45;9.70;99.90
55369;DHT22;41247;49.736;8.752;2022-11-04T01:35:25;9.70;99.90
55369;DHT22;41247;49.736;8.752;2022-11-04T01:39:06;9.70;99.90
55369;DHT22;41247;49.736;8.752;2022-11-04T01:42:48;9.70;99.90
55369;DHT22;41247;49.736;8.752;2022-11-04T01:46:34;9.60;99.90
55369;DHT22;41247;49.736;8.752;2022-11-04T01:50:21;9.60;99.90
55369;DHT22;41247;49.736;8.752;2022-11-04T01:54:07;9.60;99.90
55369;DHT22;41247;49.736;8.752;2022-11-04T01:57:51;9.60;99.90
55369;DHT22;41247;49.736;8.752;2022-11-04T02:01:35;9.60;99.90
55369;DHT22;41247;49.736;8.752;2022-11-04T02:05:15;9.60;99.90
55369;DHT22;41247;49.736;8.752;2022-11-04T02:08:56;9.50;99.90
55369;DHT22;41247;49.736;8.752;2022-11-04T02:12:38;9.50;99.90
55369;DHT22;41247;49.736;8.752;2022-11-04T02:16:21;9.50;99.90
55369;DHT22;41247;49.736;8.752;2022-11-04T02:20:33;9.50;99.90
55369;DHT22;41247;49.736;8.752;2022-11-04T02:41:40;9.30;99.90
55369;DHT22;41247;49.736;8.752;2022-11-04T02:58:30;9.20;99.90
55369;DHT22;41247;49.736;8.752;2022-11-04T03:02:17;9.10;99.90
55369;DHT22;41247;49.736;8.752;2022-11-04T03:06:03;9.10;99.90
55369;DHT22;41247;49.736;8.752;2022-11-04T03:09:49;9.10;99.90
55369;DHT22;41247;49.736;8.752;2022-11-04T03:13:38;9.10;99.90
55369;DHT22;41247;49.736;8.752;2022-11-04T03:17:36;9.00;99.90
55369;DHT22;41247;49.736;8.752;2022-11-04T03:21:23;9.00;99.90
55369;DHT22;41247;49.736;8.752;2022-11-04T03:25:06;9.00;99.90
55369;DHT22;41247;49.736;8.752;2022-11-04T03:32:56;8.90;99.90
55369;DHT22;41247;49.736;8.752;2022-11-04T03:36:41;8.90;99.90
55369;DHT22;41247;49.736;8.752;2022-11-04T03:40:21;8.90;99.90
55369;DHT22;41247;49.736;8.752;2022-11-04T03:44:03;8.90;99.90
55369;DHT22;41247;49.736;8.752;2022-11-04T03:47:43;8.80;99.90
55369;DHT22;41247;49.736;8.752;2022-11-04T03:51:24;8.80;99.90
55369;DHT22;41247;49.736;8.752;2022-11-04T03:55:05;8.80;99.90
55369;DHT22;41247;49.736;8.752;2022-11-04T03:59:05;8.70;99.90
55369;DHT22;41247;49.736;8.752;2022-11-04T04:03:47;8.60;99.90
55369;DHT22;41247;49.736;8.752;2022-11-04T04:07:57;8.50;99.90
55369;DHT22;41247;49.736;8.752;2022-11-04T04:11:59;8.40;99.90
55369;DHT22;41247;49.736;8.752;2022-11-04T04:15:50;8.40;99.90
55369;DHT22;41247;49.736;8.752;2022-11-04T04:19:35;8.30;99.90
55369;DHT22;41247;49.736;8.752;2022-11-04T04:23:20;8.20;99.90
55369;DHT22;41247;49.736;8.752;2022-11-04T04:27:03;8.20;99.90
55369;DHT22;41247;49.736;8.752;2022-11-04T04:30:45;8.10;99.90
55369;DHT22;41247;49.736;8.752;2022-11-04T04:34:28;8.10;99.90
55369;DHT22;41247;49.736;8.752;2022-11-04T04:38:27;8.10;99.90
55369;DHT22;41247;49.736;8.752;2022-11-04T04:42:08;8.10;99.90
55369;DHT22;41247;49.736;8.752;2022-11-04T04:45:53;8.00;99.90
55369;DHT22;41247;49.736;8.752;2022-11-04T04:49:35;8.00;99.90
55369;DHT22;41247;49.736;8.752;2022-11-04T04:53:15;7.90;99.90
55369;DHT22;41247;49.736;8.752;2022-11-04T04:56:56;7.90;99.90
55369;DHT22;41247;49.736;8.752;2022-11-04T05:00:37;7.90;99.90
55369;DHT22;41247;49.736;8.752;2022-11-04T05:04:17;7.90;99.90
55369;DHT22;41247;49.736;8.752;2022-11-04T05:08:05;7.90;99.90
55369;DHT22;41247;49.736;8.752;2022-11-04T05:11:46;7.80;99.90
55369;DHT22;41247;49.736;8.752;2022-11-04T05:15:27;7.90;99.90
55369;DHT22;41247;49.736;8.752;2022-11-04T05:19:08;7.90;99.90
55369;DHT22;41247;49.736;8.752;2022-11-04T05:22:49;7.90;99.90
55369;DHT22;41247;49.736;8.752;2022-11-04T05:26:30;7.90;99.90
55369;DHT22;41247;49.736;8.752;2022-11-04T05:30:11;7.80;99.90
55369;DHT22;41247;49.736;8.752;2022-11-04T05:33:52;7.80;99.90
55369;DHT22;41247;49.736;8.752;2022-11-04T05:37:33;7.80;99.90
55369;DHT22;41247;49.736;8.752;2022-11-04T05:41:13;7.80;99.90
55369;DHT22;41247;49.736;8.752;2022-11-04T05:44:54;7.80;99.90
55369;DHT22;41247;49.736;8.752;2022-11-04T05:48:34;7.90;99.90
55369;DHT22;41247;49.736;8.752;2022-11-04T05:52:15;7.90;99.90
55369;DHT22;41247;49.736;8.752;2022-11-04T05:55:55;7.90;99.90
55369;DHT22;41247;49.736;8.752;2022-11-04T05:59:36;8.00;99.90
55369;DHT22;41247;49.736;8.752;2022-11-04T06:03:17;8.00;99.90
55369;DHT22;41247;49.736;8.752;2022-11-04T06:06:57;8.00;99.90
55369;DHT22;41247;49.736;8.752;2022-11-04T06:10:38;8.00;99.90
55369;DHT22;41247;49.736;8.752;2022-11-04T06:14:19;8.00;99.90
55369;DHT22;41247;49.736;8.752;2022-11-04T06:17:59;8.10;99.90
55369;DHT22;41247;49.736;8.752;2022-11-04T06:21:40;8.10;99.90
55369;DHT22;41247;49.736;8.752;2022-11-04T06:25:21;8.10;99.90
55369;DHT22;41247;49.736;8.752;2022-11-04T06:29:01;8.20;99.90
55369;DHT22;41247;49.736;8.752;2022-11-04T06:32:42;8.30;99.90
55369;DHT22;41247;49.736;8.752;2022-11-04T06:36:22;8.30;99.90
55369;DHT22;41247;49.736;8.752;2022-11-04T06:40:03;8.30;99.90
55369;DHT22;41247;49.736;8.752;2022-11-04T06:43:44;8.30;99.90
55369;DHT22;41247;49.736;8.752;2022-11-04T06:47:25;8.30;99.90
55369;DHT22;41247;49.736;8.752;2022-11-04T06:51:06;8.30;99.90
55369;DHT22;41247;49.736;8.752;2022-11-04T06:54:46;8.30;99.90
55369;DHT22;41247;49.736;8.752;2022-11-04T06:58:27;8.30;99.90
55369;DHT22;41247;49.736;8.752;2022-11-04T07:02:09;8.20;99.90
55369;DHT22;41247;49.736;8.752;2022-11-04T07:05:50;8.20;99.90
55369;DHT22;41247;49.736;8.752;2022-11-04T07:09:30;8.20;99.90
55369;DHT22;41247;49.736;8.752;2022-11-04T07:13:11;8.10;99.90
55369;DHT22;41247;49.736;8.752;2022-11-04T07:16:52;8.20;99.90
55369;DHT22;41247;49.736;8.752;2022-11-04T07:20:34;8.20;99.90
55369;DHT22;41247;49.736;8.752;2022-11-04T07:24:15;8.20;99.90
55369;DHT22;41247;49.736;8.752;2022-11-04T07:27:56;8.30;99.90
55369;DHT22;41247;49.736;8.752;2022-11-04T07:31:37;8.30;99.90
55369;DHT22;41247;49.736;8.752;2022-11-04T07:35:18;8.40;99.90
55369;DHT22;41247;49.736;8.752;2022-11-04T07:38:59;8.50;99.90
55369;DHT22;41247;49.736;8.752;2022-11-04T07:42:40;8.50;99.90
55369;DHT22;41247;49.736;8.752;2022-11-04T07:46:21;8.50;99.90
55369;DHT22;41247;49.736;8.752;2022-11-04T07:50:01;8.60;99.90
55369;DHT22;41247;49.736;8.752;2022-11-04T07:53:43;8.60;99.90
55369;DHT22;41247;49.736;8.752;2022-11-04T07:57:24;8.60;99.90
55369;DHT22;41247;49.736;8.752;2022-11-04T08:01:08;8.60;99.90
55369;DHT22;41247;49.736;8.752;2022-11-04T08:04:51;8.60;99.90
55369;DHT22;41247;49.736;8.752;2022-11-04T08:08:32;8.70;99.90
55369;DHT22;41247;49.736;8.752;2022-11-04T08:12:13;8.80;99.90
55369;DHT22;41247;49.736;8.752;2022-11-04T08:15:54;8.90;99.90
55369;DHT22;41247;49.736;8.752;2022-11-04T08:19:35;8.90;99.90
55369;DHT22;41247;49.736;8.752;2022-11-04T08:23:16;9.00;99.90
55369;DHT22;41247;49.736;8.752;2022-11-04T08:26:57;9.10;99.90
55369;DHT22;41247;49.736;8.752;2022-11-04T08:30:38;9.20;99.90
55369;DHT22;41247;49.736;8.752;2022-11-04T08:34:18;9.20;99.90
55369;DHT22;41247;49.736;8.752;2022-11-04T08:37:59;9.20;99.90
55369;DHT22;41247;49.736;8.752;2022-11-04T08:41:41;9.30;99.90
55369;DHT22;41247;49.736;8.752;2022-11-04T08:45:22;9.30;99.90
55369;DHT22;41247;49.736;8.752;2022-11-04T08:49:03;9.40;99.90
55369;DHT22;41247;49.736;8.752;2022-11-04T08:52:44;9.40;99.90
55369;DHT22;41247;49.736;8.752;2022-11-04T08:56:30;9.40;99.90
55369;DHT22;41247;49.736;8.752;2022-11-04T09:00:13;9.40;99.90
55369;DHT22;41247;49.736;8.752;2022-11-04T09:03:54;9.40;99.90
55369;DHT22;41247;49.736;8.752;2022-11-04T09:07:35;9.50;99.90
55369;DHT22;41247;49.736;8.752;2022-11-04T09:11:16;9.60;99.90
55369;DHT22;41247;49.736;8.752;2022-11-04T09:14:57;9.70;99.90
55369;DHT22;41247;49.736;8.752;2022-11-04T09:18:38;9.80;99.90
55369;DHT22;41247;49.736;8.752;2022-11-04T09:22:19;9.90;99.90
55369;DHT22;41247;49.736;8.752;2022-11-04T09:26:11;10.00;99.90
55369;DHT22;41247;49.736;8.752;2022-11-04T09:29:53;10.00;99.90
55369;DHT22;41247;49.736;8.752;2022-11-04T09:33:34;10.00;99.90
55369;DHT22;41247;49.736;8.752;2022-11-04T09:37:14;10.10;99.90
55369;DHT22;41247;49.736;8.752;2022-11-04T09:40:56;10.10;99.90
55369;DHT22;41247;49.736;8.752;2022-11-04T09:45:12;10.20;99.90
55369;DHT22;41247;49.736;8.752;2022-11-04T09:48:55;10.20;99.90
55369;DHT22;41247;49.736;8.752;2022-11-04T09:52:38;10.30;99.90
55369;DHT22;41247;49.736;8.752;2022-11-04T09:56:33;10.30;99.90
55369;DHT22;41247;49.736;8.752;2022-11-04T10:00:15;10.40;99.90
55369;DHT22;41247;49.736;8.752;2022-11-04T10:25:10;10.70;99.90
55369;DHT22;41247;49.736;8.752;2022-11-04T10:33:36;10.50;99.90
55369;DHT22;41247;49.736;8.752;2022-11-04T10:37:19;10.40;99.90
55369;DHT22;41247;49.736;8.752;2022-11-04T10:41:00;10.40;99.90
55369;DHT22;41247;49.736;8.752;2022-11-04T10:44:41;10.40;99.90
55369;DHT22;41247;49.736;8.752;2022-11-04T10:48:54;10.50;99.90
55369;DHT22;41247;49.736;8.752;2022-11-04T10:52:40;10.80;99.90
55369;DHT22;41247;49.736;8.752;2022-11-04T10:56:28;11.10;99.90
55369;DHT22;41247;49.736;8.752;2022-11-04T11:00:34;11.10;99.90
55369;DHT22;41247;49.736;8.752;2022-11-04T11:04:30;11.20;99.90
55369;DHT22;41247;49.736;8.752;2022-11-04T11:08:27;11.30;99.90
55369;DHT22;41247;49.736;8.752;2022-11-04T11:16:24;11.50;99.90
55369;DHT22;41247;49.736;8.752;2022-11-04T11:20:21;11.60;99.90
55369;DHT22;41247;49.736;8.752;2022-11-04T11:24:13;11.60;99.90
55369;DHT22;41247;49.736;8.752;2022-11-04T11:31:40;11.50;99.90
55369;DHT22;41247;49.736;8.752;2022-11-04T11:35:28;11.40;99.90
55369;DHT22;41247;49.736;8.752;2022-11-04T11:42:52;11.40;99.90
55369;DHT22;41247;49.736;8.752;2022-11-04T11:46:34;11.30;99.90
55369;DHT22;41247;49.736;8.752;2022-11-04T11:50:17;11.30;99.90
55369;DHT22;41247;49.736;8.752;2022-11-04T11:54:31;11.40;99.90
55369;DHT22;41247;49.736;8.752;2022-11-04T11:58:31;11.50;99.90
55369;DHT22;41247;49.736;8.752;2022-11-04T12:06:36;11.70;99.90
55369;DHT22;41247;49.736;8.752;2022-11-04T12:10:36;11.70;99.90
55369;DHT22;41247;49.736;8.752;2022-11-04T12:22:37;11.90;99.90
55369;DHT22;41247;49.736;8.752;2022-11-04T12:35:48;12.20;99.90
55369;DHT22;41247;49.736;8.752;2022-11-04T12:40:10;12.00;99.90
55369;DHT22;41247;49.736;8.752;2022-11-04T12:44:03;11.90;99.90
55369;DHT22;41247;49.736;8.752;2022-11-04T12:48:03;11.80;99.90
55369;DHT22;41247;49.736;8.752;2022-11-04T12:52:09;11.70;99.90
55369;DHT22;41247;49.736;8.752;2022-11-04T12:56:32;11.50;99.90
55369;DHT22;41247;49.736;8.752;2022-11-04T13:00:17;11.30;99.90
55369;DHT22;41247;49.736;8.752;2022-11-04T13:04:09;11.20;99.90
55369;DHT22;41247;49.736;8.752;2022-11-04T13:11:50;11.20;99.90
55369;DHT22;41247;49.736;8.752;2022-11-04T13:15:53;11.40;99.90
55369;DHT22;41247;49.736;8.752;2022-11-04T13:19:47;11.40;99.90
55369;DHT22;41247;49.736;8.752;2022-11-04T13:27:34;11.50;99.90
55369;DHT22;41247;49.736;8.752;2022-11-04T13:31:26;11.40;99.90
55369;DHT22;41247;49.736;8.752;2022-11-04T13:35:33;11.40;99.90
55369;DHT22;41247;49.736;8.752;2022-11-04T13:39:27;11.30;99.90
55369;DHT22;41247;49.736;8.752;2022-11-04T13:47:04;11.40;99.90
55369;DHT22;41247;49.736;8.752;2022-11-04T13:51:06;11.50;99.90
55369;DHT22;41247;49.736;8.752;2022-11-04T13:54:55;11.50;99.90
55369;DHT22;41247;49.736;8.752;2022-11-04T13:58:37;11.40;99.90
55369;DHT22;41247;49.736;8.752;2022-11-04T14:21:27;10.70;99.90
55369;DHT22;41247;49.736;8.752;2022-11-04T14:29:22;10.70;99.90
55369;DHT22;41247;49.736;8.752;2022-11-04T14:33:06;10.70;99.90
55369;DHT22;41247;49.736;8.752;2022-11-04T14:36:58;10.70;99.90
55369;DHT22;41247;49.736;8.752;2022-11-04T14:40:49;10.80;99.90
55369;DHT22;41247;49.736;8.752;2022-11-04T14:44:37;10.90;99.90
55369;DHT22;41247;49.736;8.752;2022-11-04T14:48:23;11.00;99.90
55369;DHT22;41247;49.736;8.752;2022-11-04T14:52:12;11.30;99.90
55369;DHT22;41247;49.736;8.752;2022-11-04T14:56:26;11.40;99.90
55369;DHT22;41247;49.736;8.752;2022-11-04T15:00:18;11.30;99.90
55369;DHT22;41247;49.736;8.752;2022-11-04T15:04:23;11.20;99.90
55369;DHT22;41247;49.736;8.752;2022-11-04T15:12:22;10.80;99.90
55369;DHT22;41247;49.736;8.752;2022-11-04T15:16:08;10.70;99.90
55369;DHT22;41247;49.736;8.752;2022-11-04T15:19:56;10.50;99.90
55369;DHT22;41247;49.736;8.752;2022-11-04T15:23:44;10.50;99.90
55369;DHT22;41247;49.736;8.752;2022-11-04T15:27:28;10.50;99.90
55369;DHT22;41247;49.736;8.752;2022-11-04T15:34:53;10.30;99.90
55369;DHT22;41247;49.736;8.752;2022-11-04T15:38:34;10.30;99.90
55369;DHT22;41247;49.736;8.752;2022-11-04T15:42:23;10.30;99.90
55369;DHT22;41247;49.736;8.752;2022-11-04T15:46:18;10.20;99.90
55369;DHT22;41247;49.736;8.752;2022-11-04T15:50:20;10.10;99.90
55369;DHT22;41247;49.736;8.752;2022-11-04T15:54:04;9.90;99.90
55369;DHT22;41247;49.736;8.752;2022-11-04T15:57:46;9.90;99.90
55369;DHT22;41247;49.736;8.752;2022-11-04T16:01:28;9.80;99.90
55369;DHT22;41247;49.736;8.752;2022-11-04T16:09:00;9.70;99.90
55369;DHT22;41247;49.736;8.752;2022-11-04T16:12:45;9.50;99.90
55369;DHT22;41247;49.736;8.752;2022-11-04T16:16:26;9.40;99.90
55369;DHT22;41247;49.736;8.752;2022-11-04T16:20:16;9.30;99.90
55369;DHT22;41247;49.736;8.752;2022-11-04T16:24:14;9.20;99.90
55369;DHT22;41247;49.736;8.752;2022-11-04T16:27:57;9.20;99.90
55369;DHT22;41247;49.736;8.752;2022-11-04T16:31:38;9.20;99.90
55369;DHT22;41247;49.736;8.752;2022-11-04T16:35:24;9.20;99.90
55369;DHT22;41247;49.736;8.752;2022-11-04T16:39:06;9.20;99.90
55369;DHT22;41247;49.736;8.752;2022-11-04T16:42:49;9.20;99.90
55369;DHT22;41247;49.736;8.752;2022-11-04T16:46:33;9.20;99.90
55369;DHT22;41247;49.736;8.752;2022-11-04T16:50:15;9.20;99.90
55369;DHT22;41247;49.736;8.752;2022-11-04T16:53:56;9.20;99.90
55369;DHT22;41247;49.736;8.752;2022-11-04T16:57:37;9.20;99.90
55369;DHT22;41247;49.736;8.752;2022-11-04T17:01:18;9.30;99.90
55369;DHT22;41247;49.736;8.752;2022-11-04T17:04:59;9.20;99.90
55369;DHT22;41247;49.736;8.752;2022-11-04T17:08:40;9.20;99.90
55369;DHT22;41247;49.736;8.752;2022-11-04T17:12:20;9.20;99.90
55369;DHT22;41247;49.736;8.752;2022-11-04T17:16:01;9.20;99.90
55369;DHT22;41247;49.736;8.752;2022-11-04T17:19:42;9.20;99.90
55369;DHT22;41247;49.736;8.752;2022-11-04T17:23:23;9.20;99.90
55369;DHT22;41247;49.736;8.752;2022-11-04T17:27:04;9.10;99.90
55369;DHT22;41247;49.736;8.752;2022-11-04T17:30:44;9.00;99.90
55369;DHT22;41247;49.736;8.752;2022-11-04T17:34:25;9.00;99.90
55369;DHT22;41247;49.736;8.752;2022-11-04T17:38:05;9.00;99.90
55369;DHT22;41247;49.736;8.752;2022-11-04T17:41:46;9.00;99.90
55369;DHT22;41247;49.736;8.752;2022-11-04T17:45:27;9.00;99.90
55369;DHT22;41247;49.736;8.752;2022-11-04T17:52:56;9.10;99.90
55369;DHT22;41247;49.736;8.752;2022-11-04T17:56:38;9.10;99.90
55369;DHT22;41247;49.736;8.752;2022-11-04T18:00:19;9.10;99.90
55369;DHT22;41247;49.736;8.752;2022-11-04T18:03:59;9.00;99.90
55369;DHT22;41247;49.736;8.752;2022-11-04T18:07:40;9.00;99.90
55369;DHT22;41247;49.736;8.752;2022-11-04T18:11:23;9.10;99.90
55369;DHT22;41247;49.736;8.752;2022-11-04T18:15:10;9.00;99.90
55369;DHT22;41247;49.736;8.752;2022-11-04T18:18:52;9.00;99.90
55369;DHT22;41247;49.736;8.752;2022-11-04T18:22:33;9.00;99.90
55369;DHT22;41247;49.736;8.752;2022-11-04T18:26:14;9.10;99.90
55369;DHT22;41247;49.736;8.752;2022-11-04T18:29:55;9.00;99.90
55369;DHT22;41247;49.736;8.752;2022-11-04T18:33:37;9.00;99.90
55369;DHT22;41247;49.736;8.752;2022-11-04T18:37:18;9.00;99.90
55369;DHT22;41247;49.736;8.752;2022-11-04T18:40:59;9.00;99.90
55369;DHT22;41247;49.736;8.752;2022-11-04T18:44:39;8.90;99.90
55369;DHT22;41247;49.736;8.752;2022-11-04T18:48:20;9.00;99.90
55369;DHT22;41247;49.736;8.752;2022-11-04T18:52:01;9.00;99.90
55369;DHT22;41247;49.736;8.752;2022-11-04T18:55:41;9.00;99.90
55369;DHT22;41247;49.736;8.752;2022-11-04T18:59:22;8.90;99.90
55369;DHT22;41247;49.736;8.752;2022-11-04T19:03:03;8.90;99.90
55369;DHT22;41247;49.736;8.752;2022-11-04T19:06:43;8.90;99.90
55369;DHT22;41247;49.736;8.752;2022-11-04T19:10:24;8.90;99.90
55369;DHT22;41247;49.736;8.752;2022-11-04T19:14:08;8.90;99.90
55369;DHT22;41247;49.736;8.752;2022-11-04T19:17:50;8.90;99.90
55369;DHT22;41247;49.736;8.752;2022-11-04T19:21:32;8.90;99.90
55369;DHT22;41247;49.736;8.752;2022-11-04T19:25:13;8.90;99.90
55369;DHT22;41247;49.736;8.752;2022-11-04T19:28:53;8.90;99.90
55369;DHT22;41247;49.736;8.752;2022-11-04T19:32:34;8.90;99.90
55369;DHT22;41247;49.736;8.752;2022-11-04T19:36:17;8.90;99.90
55369;DHT22;41247;49.736;8.752;2022-11-04T19:39:58;8.90;99.90
55369;DHT22;41247;49.736;8.752;2022-11-04T19:43:39;8.90;99.90
55369;DHT22;41247;49.736;8.752;2022-11-04T19:47:19;8.90;99.90
55369;DHT22;41247;49.736;8.752;2022-11-04T19:51:00;8.90;99.90
55369;DHT22;41247;49.736;8.752;2022-11-04T19:54:41;8.90;99.90
55369;DHT22;41247;49.736;8.752;2022-11-04T19:58:21;8.80;99.90
55369;DHT22;41247;49.736;8.752;2022-11-04T20:02:02;8.80;99.90
55369;DHT22;41247;49.736;8.752;2022-11-04T20:05:42;8.80;99.90
55369;DHT22;41247;49.736;8.752;2022-11-04T20:09:23;8.80;99.90
55369;DHT22;41247;49.736;8.752;2022-11-04T20:13:04;8.80;99.90
55369;DHT22;41247;49.736;8.752;2022-11-04T20:16:44;8.90;99.90
55369;DHT22;41247;49.736;8.752;2022-11-04T20:20:25;8.90;99.90
55369;DHT22;41247;49.736;8.752;2022-11-04T20:24:07;8.90;99.90
55369;DHT22;41247;49.736;8.752;2022-11-04T20:27:49;8.90;99.90
55369;DHT22;41247;49.736;8.752;2022-11-04T20:31:32;8.90;99.90
55369;DHT22;41247;49.736;8.752;2022-11-04T20:35:14;8.90;99.90
55369;DHT22;41247;49.736;8.752;2022-11-04T20:39:03;8.90;99.90
55369;DHT22;41247;49.736;8.752;2022-11-04T20:42:45;8.90;99.90
55369;DHT22;41247;49.736;8.752;2022-11-04T20:46:28;8.90;99.90
55369;DHT22;41247;49.736;8.752;2022-11-04T20:50:09;9.00;99.90
55369;DHT22;41247;49.736;8.752;2022-11-04T20:53:50;8.90;99.90
55369;DHT22;41247;49.736;8.752;2022-11-04T20:57:32;9.00;99.90
55369;DHT22;41247;49.736;8.752;2022-11-04T21:01:21;8.90;99.90
55369;DHT22;41247;49.736;8.752;2022-11-04T21:05:03;8.90;99.90
55369;DHT22;41247;49.736;8.752;2022-11-04T21:08:44;8.90;99.90
55369;DHT22;41247;49.736;8.752;2022-11-04T21:12:25;8.90;99.90
55369;DHT22;41247;49.736;8.752;2022-11-04T21:16:05;9.00;99.90
55369;DHT22;41247;49.736;8.752;2022-11-04T21:19:46;9.00;99.90
55369;DHT22;41247;49.736;8.752;2022-11-04T21:23:27;8.90;99.90
55369;DHT22;41247;49.736;8.752;2022-11-04T21:27:07;8.90;99.90
55369;DHT22;41247;49.736;8.752;2022-11-04T21:30:50;8.90;99.90
55369;DHT22;41247;49.736;8.752;2022-11-04T21:34:32;8.90;99.90
55369;DHT22;41247;49.736;8.752;2022-11-04T21:38:14;8.90;99.90
55369;DHT22;41247;49.736;8.752;2022-11-04T21:41:56;8.90;99.90
55369;DHT22;41247;49.736;8.752;2022-11-04T21:45:37;8.90;99.90
55369;DHT22;41247;49.736;8.752;2022-11-04T21:49:18;8.90;99.90
55369;DHT22;41247;49.736;8.752;2022-11-04T21:52:58;8.90;99.90
55369;DHT22;41247;49.736;8.752;2022-11-04T21:56:39;8.90;99.90
55369;DHT22;41247;49.736;8.752;2022-11-04T22:00:20;8.90;99.90
55369;DHT22;41247;49.736;8.752;2022-11-04T22:04:01;8.90;99.90
55369;DHT22;41247;49.736;8.752;2022-11-04T22:07:42;8.90;99.90
55369;DHT22;41247;49.736;8.752;2022-11-04T22:11:27;8.90;99.90
55369;DHT22;41247;49.736;8.752;2022-11-04T22:15:09;8.90;99.90
55369;DHT22;41247;49.736;8.752;2022-11-04T22:18:54;8.80;99.90
55369;DHT22;41247;49.736;8.752;2022-11-04T22:22:36;8.90;99.90
55369;DHT22;41247;49.736;8.752;2022-11-04T22:26:23;8.80;99.90
55369;DHT22;41247;49.736;8.752;2022-11-04T22:30:05;8.80;99.90
55369;DHT22;41247;49.736;8.752;2022-11-04T22:33:46;8.80;99.90
55369;DHT22;41247;49.736;8.752;2022-11-04T22:37:27;8.80;99.90
55369;DHT22;41247;49.736;8.752;2022-11-04T22:41:15;8.80;99.90
55369;DHT22;41247;49.736;8.752;2022-11-04T22:45:00;8.80;99.90
55369;DHT22;41247;49.736;8.752;2022-11-04T22:48:41;8.80;99.90
55369;DHT22;41247;49.736;8.752;2022-11-04T22:52:22;8.80;99.90
55369;DHT22;41247;49.736;8.752;2022-11-04T22:56:04;8.80;99.90
55369;DHT22;41247;49.736;8.752;2022-11-04T22:59:46;8.80;99.90
55369;DHT22;41247;49.736;8.752;2022-11-04T23:03:27;8.80;99.90
55369;DHT22;41247;49.736;8.752;2022-11-04T23:07:07;8.80;99.90
55369;DHT22;41247;49.736;8.752;2022-11-04T23:10:48;8.80;99.90
55369;DHT22;41247;49.736;8.752;2022-11-04T23:14:29;8.80;99.90
55369;DHT22;41247;49.736;8.752;2022-11-04T23:18:10;8.80;99.90
55369;DHT22;41247;49.736;8.752;2022-11-04T23:21:52;8.80;99.90
55369;DHT22;41247;49.736;8.752;2022-11-04T23:25:32;8.80;99.90
55369;DHT22;41247;49.736;8.752;2022-11-04T23:29:14;8.80;99.90
55369;DHT22;41247;49.736;8.752;2022-11-04T23:33:04;8.80;99.90
55369;DHT22;41247;49.736;8.752;2022-11-04T23:36:48;8.80;99.90
55369;DHT22;41247;49.736;8.752;2022-11-04T23:40:30;8.80;99.90
55369;DHT22;41247;49.736;8.752;2022-11-04T23:44:11;8.80;99.90
55369;DHT22;41247;49.736;8.752;2022-11-04T23:47:54;8.80;99.90
55369;DHT22;41247;49.736;8.752;2022-11-04T23:51:35;8.80;99.90
55369;DHT22;41247;49.736;8.752;2022-11-04T23:55:16;8.80;99.90
55369;DHT22;41247;49.736;8.752;2022-11-04T23:58:56;8.80;99.90
